createdAt,value
2023-05-09T00:01:39.343Z,2.90
2023-05-09T00:04:06.760Z,2.50
2023-05-09T00:06:35.476Z,2.60
2023-05-09T00:09:03.070Z,2.60
2023-05-09T00:11:30.414Z,2.27
2023-05-09T00:13:58.531Z,2.90
2023-05-09T00:16:25.912Z,2.60
2023-05-09T00:18:53.742Z,2.97
2023-05-09T00:21:21.399Z,2.60
2023-05-09T00:23:50.094Z,2.53
2023-05-09T00:26:17.488Z,2.87
2023-05-09T00:28:44.922Z,2.57
2023-05-09T00:31:12.302Z,2.63
2023-05-09T00:33:39.749Z,2.97
2023-05-09T00:36:07.418Z,2.50
2023-05-09T00:38:34.761Z,2.50
2023-05-09T00:41:03.542Z,2.50
2023-05-09T00:43:31.044Z,2.73
2023-05-09T00:45:58.539Z,2.77
2023-05-09T00:48:26.180Z,2.83
2023-05-09T00:50:53.599Z,2.63
2023-05-09T00:53:21.239Z,2.50
2023-05-09T00:55:49.314Z,2.77
2023-05-09T00:58:19.323Z,2.70
2023-05-09T01:00:46.873Z,2.83
2023-05-09T01:03:15.790Z,2.60
2023-05-09T01:05:51.031Z,3.10
2023-05-09T01:08:22.596Z,2.67
2023-05-09T01:10:56.217Z,2.67
2023-05-09T01:13:27.383Z,3.27
2023-05-09T01:15:55.406Z,3.00
2023-05-09T01:18:26.941Z,3.10
2023-05-09T01:20:58.647Z,3.00
2023-05-09T01:23:38.504Z,2.37
2023-05-09T01:26:06.569Z,3.13
2023-05-09T01:28:53.689Z,3.03
2023-05-09T01:31:24.637Z,3.10
2023-05-09T01:33:55.010Z,3.13
2023-05-09T01:36:22.356Z,3.20
2023-05-09T01:38:51.256Z,3.37
2023-05-09T01:41:19.841Z,3.47
2023-05-09T01:43:48.225Z,3.57
2023-05-09T01:46:17.062Z,3.73
2023-05-09T01:48:46.420Z,3.17
2023-05-09T01:51:14.727Z,3.57
2023-05-09T01:53:43.077Z,3.17
2023-05-09T01:56:10.706Z,3.07
2023-05-09T01:58:40.907Z,2.70
2023-05-09T02:01:08.655Z,3.07
2023-05-09T02:03:37.367Z,2.90
2023-05-09T02:06:06.226Z,2.60
2023-05-09T02:08:34.055Z,3.23
2023-05-09T02:11:01.764Z,3.50
2023-05-09T02:13:29.164Z,3.43
2023-05-09T02:15:57.525Z,3.23
2023-05-09T02:18:24.894Z,3.20
2023-05-09T02:20:52.518Z,3.50
2023-05-09T02:23:21.475Z,3.73
2023-05-09T02:25:48.903Z,3.60
2023-05-09T02:28:16.714Z,3.10
2023-05-09T02:30:45.138Z,3.43
2023-05-09T02:33:13.432Z,3.50
2023-05-09T02:35:42.703Z,3.00
2023-05-09T02:38:10.057Z,3.90
2023-05-09T02:40:39.529Z,3.33
2023-05-09T02:43:06.995Z,3.40
2023-05-09T02:45:34.622Z,3.47
2023-05-09T02:48:03.604Z,3.43
2023-05-09T02:50:31.963Z,3.47
2023-05-09T02:52:59.353Z,3.17
2023-05-09T02:55:26.875Z,3.20
2023-05-09T02:58:09.267Z,3.23
2023-05-09T03:00:40.716Z,2.97
2023-05-09T03:03:08.896Z,3.20
2023-05-09T03:05:36.377Z,3.50
2023-05-09T03:08:03.897Z,3.03
2023-05-09T03:10:31.330Z,2.80
2023-05-09T03:13:00.030Z,3.30
2023-05-09T03:15:28.217Z,3.00
2023-05-09T03:17:58.328Z,2.90
2023-05-09T03:20:26.856Z,3.23
2023-05-09T03:22:54.832Z,3.40
2023-05-09T03:25:22.540Z,3.23
2023-05-09T03:27:50.103Z,2.80
2023-05-09T03:30:19.064Z,3.00
2023-05-09T03:32:49.254Z,2.87
2023-05-09T03:35:16.867Z,3.30
2023-05-09T03:37:44.398Z,2.80
2023-05-09T03:40:12.394Z,2.60
2023-05-09T03:42:49.598Z,2.80
2023-05-09T03:45:17.093Z,2.83
2023-05-09T03:47:47.967Z,3.20
2023-05-09T03:50:16.399Z,2.90
2023-05-09T03:52:45.043Z,3.00
2023-05-09T03:55:15.860Z,3.03
2023-05-09T03:57:44.208Z,2.77
2023-05-09T04:00:12.526Z,3.13
2023-05-09T04:02:49.753Z,2.90
2023-05-09T04:05:27.004Z,2.93
2023-05-09T04:07:54.836Z,2.57
2023-05-09T04:10:22.648Z,2.83
2023-05-09T04:12:50.100Z,3.30
2023-05-09T04:15:18.359Z,3.40
2023-05-09T04:17:45.767Z,2.50
2023-05-09T04:20:15.079Z,2.93
2023-05-09T04:22:46.094Z,3.00
2023-05-09T04:25:15.981Z,2.97
2023-05-09T04:27:44.229Z,3.20
2023-05-09T04:30:12.214Z,2.60
2023-05-09T04:32:40.470Z,2.83
2023-05-09T04:35:08.357Z,2.50
2023-05-09T04:37:41.812Z,2.43
2023-05-09T04:40:10.492Z,3.00
2023-05-09T04:42:43.970Z,2.97
2023-05-09T04:45:12.355Z,2.93
2023-05-09T04:47:40.193Z,3.23
2023-05-09T04:50:08.325Z,3.33
2023-05-09T04:52:35.829Z,3.30
2023-05-09T04:55:04.570Z,3.10
2023-05-09T04:57:37.029Z,3.83
2023-05-09T05:00:07.321Z,3.70
2023-05-09T05:02:35.927Z,3.67
2023-05-09T05:05:11.462Z,3.03
2023-05-09T05:07:42.234Z,2.80
2023-05-09T05:10:13.505Z,2.70
2023-05-09T05:12:44.067Z,2.67
2023-05-09T05:15:14.084Z,2.33
2023-05-09T05:17:44.446Z,2.50
2023-05-09T05:20:12.232Z,2.30
2023-05-09T05:22:44.636Z,2.37
2023-05-09T05:25:14.203Z,2.40
2023-05-09T05:27:43.456Z,2.60
2023-05-09T05:30:15.358Z,2.37
2023-05-09T05:32:43.949Z,2.60
2023-05-09T05:35:13.789Z,2.10
2023-05-09T05:37:42.367Z,2.50
2023-05-09T05:40:10.269Z,3.20
2023-05-09T05:42:41.985Z,2.03
2023-05-09T05:45:12.319Z,2.27
2023-05-09T05:47:42.884Z,2.43
2023-05-09T05:50:11.950Z,2.03
2023-05-09T05:52:39.987Z,2.50
2023-05-09T05:55:09.480Z,2.07
2023-05-09T05:57:37.758Z,2.13
2023-05-09T06:00:11.052Z,2.10
2023-05-09T06:02:42.999Z,1.83
2023-05-09T06:05:12.099Z,2.07
2023-05-09T06:07:41.050Z,2.07
2023-05-09T06:10:09.780Z,1.87
2023-05-09T06:12:37.179Z,2.03
2023-05-09T06:15:05.845Z,2.30
2023-05-09T06:17:37.930Z,2.20
2023-05-09T06:20:05.858Z,2.70
2023-05-09T06:22:33.185Z,2.13
2023-05-09T06:25:00.533Z,2.00
2023-05-09T06:27:27.919Z,1.77
2023-05-09T06:29:55.321Z,2.20
2023-05-09T06:32:23.450Z,2.10
2023-05-09T06:34:52.645Z,1.90
2023-05-09T06:37:20.448Z,2.00
2023-05-09T06:39:47.829Z,2.03
2023-05-09T06:42:15.175Z,2.20
2023-05-09T06:44:44.639Z,2.03
2023-05-09T06:47:11.968Z,1.83
2023-05-09T06:49:39.298Z,1.80
2023-05-09T06:52:08.011Z,1.90
2023-05-09T06:54:35.395Z,2.33
2023-05-09T06:57:02.917Z,2.13
2023-05-09T06:59:30.700Z,1.87
2023-05-09T07:01:58.286Z,1.57
2023-05-09T07:04:26.507Z,1.80
2023-05-09T07:06:53.858Z,1.60
2023-05-09T07:09:27.737Z,1.77
2023-05-09T07:11:55.090Z,1.60
2023-05-09T07:14:22.475Z,1.90
2023-05-09T07:16:49.899Z,2.00
2023-05-09T07:19:17.372Z,1.90
2023-05-09T07:21:44.769Z,2.10
2023-05-09T07:24:12.470Z,2.20
2023-05-09T07:26:41.121Z,2.20
2023-05-09T07:29:08.461Z,2.20
2023-05-09T07:31:37.455Z,1.93
2023-05-09T07:34:04.990Z,1.50
2023-05-09T07:36:34.816Z,1.97
2023-05-09T07:39:04.271Z,1.67
2023-05-09T07:41:31.676Z,2.17
2023-05-09T07:44:00.353Z,2.10
2023-05-09T07:46:27.689Z,2.33
2023-05-09T07:48:55.042Z,2.20
2023-05-09T07:51:22.673Z,2.20
2023-05-09T07:53:50.052Z,2.10
2023-05-09T07:56:17.383Z,1.97
2023-05-09T07:58:44.720Z,2.10
2023-05-09T08:01:13.374Z,1.80
2023-05-09T08:03:40.844Z,2.20
2023-05-09T08:06:08.334Z,2.23
2023-05-09T08:08:37.131Z,2.10
2023-05-09T08:11:06.595Z,2.10
2023-05-09T08:13:33.967Z,2.10
2023-05-09T08:16:01.866Z,2.20
2023-05-09T08:18:30.669Z,2.33
2023-05-09T08:20:59.463Z,2.00
2023-05-09T08:23:27.009Z,2.20
2023-05-09T08:25:54.979Z,2.20
2023-05-09T08:28:24.137Z,2.33
2023-05-09T08:30:52.039Z,2.10
2023-05-09T08:33:19.592Z,2.60
2023-05-09T08:35:51.072Z,2.00
2023-05-09T08:38:18.529Z,2.20
2023-05-09T08:40:46.194Z,2.10
2023-05-09T08:43:13.773Z,2.27
2023-05-09T08:45:43.613Z,2.17
2023-05-09T08:48:11.669Z,2.30
2023-05-09T08:50:40.249Z,2.00
2023-05-09T08:53:09.315Z,2.10
2023-05-09T08:55:37.078Z,1.90
2023-05-09T08:58:05.089Z,3.27
2023-05-09T09:00:32.541Z,2.40
2023-05-09T09:03:01.669Z,2.27
2023-05-09T09:08:03.488Z,2.40
2023-05-09T09:10:33.124Z,2.27
2023-05-09T09:13:01.145Z,2.23
2023-05-09T09:15:29.765Z,1.87
2023-05-09T09:18:00.130Z,2.20
2023-05-09T09:20:28.637Z,1.90
2023-05-09T09:22:59.788Z,1.80
2023-05-09T09:25:27.173Z,1.80
2023-05-09T09:27:55.835Z,2.23
2023-05-09T09:30:24.342Z,2.10
2023-05-09T09:32:52.153Z,1.97
2023-05-09T09:35:20.177Z,1.87
2023-05-09T09:37:47.579Z,1.80
2023-05-09T09:40:15.335Z,1.90
2023-05-09T09:42:43.714Z,1.60
2023-05-09T09:45:13.682Z,1.80
2023-05-09T09:47:41.748Z,1.73
2023-05-09T09:50:13.904Z,1.87
2023-05-09T09:52:45.278Z,1.70
2023-05-09T09:55:12.731Z,1.37
2023-05-09T09:57:43.915Z,1.80
2023-05-09T10:00:14.217Z,1.90
2023-05-09T10:02:50.210Z,1.70
2023-05-09T10:05:21.593Z,1.60
2023-05-09T10:07:54.661Z,1.50
2023-05-09T10:10:22.377Z,1.80
2023-05-09T10:12:51.192Z,2.10
2023-05-09T10:15:21.164Z,1.90
2023-05-09T10:17:49.136Z,1.97
2023-05-09T10:20:17.366Z,2.03
2023-05-09T10:22:44.806Z,2.13
2023-05-09T10:25:16.164Z,1.43
2023-05-09T10:27:46.517Z,1.77
2023-05-09T10:30:15.988Z,1.60
2023-05-09T10:32:48.614Z,1.63
2023-05-09T10:35:17.569Z,1.60
2023-05-09T10:37:45.684Z,1.63
2023-05-09T10:40:15.276Z,1.57
2023-05-09T10:42:43.409Z,1.53
2023-05-09T10:45:11.669Z,2.00
2023-05-09T10:47:39.522Z,2.07
2023-05-09T10:50:09.542Z,2.00
2023-05-09T10:53:05.507Z,2.13
2023-05-09T10:55:37.512Z,2.07
2023-05-09T10:58:19.436Z,1.80
2023-05-09T11:00:47.329Z,1.97
2023-05-09T11:03:14.966Z,1.70
2023-05-09T11:05:43.939Z,1.73
2023-05-09T11:08:21.257Z,1.90
2023-05-09T11:10:48.940Z,1.57
2023-05-09T11:13:19.288Z,1.30
2023-05-09T11:16:06.206Z,1.40
2023-05-09T11:18:33.726Z,1.47
2023-05-09T11:21:08.312Z,1.40
2023-05-09T11:23:35.716Z,1.37
2023-05-09T11:26:06.766Z,1.43
2023-05-09T11:28:35.363Z,1.60
2023-05-09T11:31:13.275Z,1.30
2023-05-09T11:33:41.346Z,1.47
2023-05-09T11:36:25.061Z,1.30
2023-05-09T11:39:01.407Z,1.80
2023-05-09T11:41:29.245Z,3.40
2023-05-09T11:43:58.018Z,1.90
2023-05-09T11:46:25.543Z,1.90
2023-05-09T11:48:54.152Z,1.50
2023-05-09T11:51:23.066Z,2.00
2023-05-09T11:53:51.220Z,1.60
2023-05-09T11:56:18.774Z,1.67
2023-05-09T11:58:46.814Z,3.00
2023-05-09T12:01:14.246Z,2.33
2023-05-09T12:03:45.247Z,2.17
2023-05-09T12:06:15.697Z,2.07
2023-05-09T12:08:44.502Z,3.80
2023-05-09T12:11:11.953Z,2.00
2023-05-09T12:13:45.355Z,1.80
2023-05-09T12:16:12.791Z,4.00
2023-05-09T12:18:44.580Z,2.23
2023-05-09T12:21:12.140Z,2.33
2023-05-09T12:23:39.501Z,1.80
2023-05-09T12:26:08.273Z,1.60
2023-05-09T12:28:35.879Z,1.80
2023-05-09T12:31:04.028Z,1.73
2023-05-09T12:33:32.893Z,1.40
2023-05-09T12:36:04.963Z,1.70
2023-05-09T12:38:32.998Z,1.63
2023-05-09T12:41:04.056Z,1.67
2023-05-09T12:43:33.723Z,1.50
2023-05-09T12:46:02.115Z,1.70
2023-05-09T12:48:29.877Z,1.37
2023-05-09T12:50:57.531Z,1.60
2023-05-09T12:53:25.375Z,1.63
2023-05-09T12:55:55.677Z,1.70
2023-05-09T12:58:23.241Z,1.57
2023-05-09T13:00:52.006Z,1.40
2023-05-09T13:03:25.075Z,1.33
2023-05-09T13:05:56.085Z,1.77
2023-05-09T13:08:23.423Z,1.50
2023-05-09T13:10:55.635Z,1.70
2023-05-09T13:13:32.118Z,1.43
2023-05-09T13:16:00.901Z,1.43
2023-05-09T13:18:28.302Z,1.30
2023-05-09T13:20:55.798Z,1.70
2023-05-09T13:23:23.182Z,1.70
2023-05-09T13:25:51.408Z,1.70
2023-05-09T13:28:18.855Z,1.40
2023-05-09T13:30:46.237Z,1.77
2023-05-09T13:33:25.133Z,1.70
2023-05-09T13:35:53.627Z,1.70
2023-05-09T13:38:20.985Z,1.33
2023-05-09T13:40:48.324Z,1.60
2023-05-09T13:43:15.669Z,1.37
2023-05-09T13:45:43.035Z,1.70
2023-05-09T13:48:11.622Z,1.60
2023-05-09T13:50:40.323Z,1.50
2023-05-09T13:53:07.697Z,1.63
2023-05-09T13:55:35.348Z,1.47
2023-05-09T13:58:02.687Z,3.03
2023-05-09T14:00:30.024Z,1.50
2023-05-09T14:02:57.397Z,1.40
2023-05-09T14:05:24.763Z,1.80
2023-05-09T14:07:53.702Z,1.57
2023-05-09T14:10:21.739Z,2.10
2023-05-09T14:12:49.544Z,2.20
2023-05-09T14:15:17.016Z,2.07
2023-05-09T14:17:44.705Z,2.10
2023-05-09T14:20:13.108Z,2.07
2023-05-09T14:22:40.646Z,1.90
2023-05-09T14:25:09.828Z,1.73
2023-05-09T14:27:37.717Z,1.80
2023-05-09T14:30:05.289Z,1.90
2023-05-09T14:32:32.706Z,1.87
2023-05-09T14:35:00.190Z,1.80
2023-05-09T14:37:29.287Z,1.70
2023-05-09T14:39:56.631Z,1.60
2023-05-09T14:42:25.534Z,1.80
2023-05-09T14:44:52.958Z,1.80
2023-05-09T14:47:20.426Z,2.20
2023-05-09T14:49:47.925Z,1.70
2023-05-09T14:52:15.318Z,1.87
2023-05-09T14:54:42.872Z,2.10
2023-05-09T14:57:10.461Z,2.23
2023-05-09T14:59:39.394Z,2.07
2023-05-09T15:02:07.005Z,2.37
2023-05-09T15:04:34.883Z,2.20
2023-05-09T15:07:02.321Z,2.10
2023-05-09T15:09:29.669Z,2.27
2023-05-09T15:11:57.059Z,1.83
2023-05-09T15:14:24.448Z,2.27
2023-05-09T15:16:54.787Z,3.20
2023-05-09T15:19:23.100Z,2.63
2023-05-09T15:21:50.542Z,2.80
2023-05-09T15:24:17.894Z,2.37
2023-05-09T15:26:46.921Z,2.50
2023-05-09T15:29:14.560Z,2.80
2023-05-09T15:31:41.999Z,2.83
2023-05-09T15:34:10.636Z,2.63
2023-05-09T15:36:38.278Z,2.50
2023-05-09T15:39:05.913Z,2.63
2023-05-09T15:41:33.825Z,2.60
2023-05-09T15:44:01.213Z,2.40
2023-05-09T15:46:28.626Z,2.57
2023-05-09T15:48:57.184Z,2.60
2023-05-09T15:51:26.215Z,2.40
2023-05-09T15:53:53.568Z,2.90
2023-05-09T15:56:21.587Z,2.63
2023-05-09T15:58:49.046Z,2.60
2023-05-09T16:01:16.437Z,2.50
2023-05-09T16:03:43.915Z,2.30
2023-05-09T16:06:12.790Z,2.13
2023-05-09T16:08:41.528Z,2.20
2023-05-09T16:11:09.034Z,2.40
2023-05-09T16:13:36.422Z,2.40
2023-05-09T16:16:04.188Z,2.57
2023-05-09T16:18:31.718Z,2.40
2023-05-09T16:20:59.596Z,2.50
2023-05-09T16:23:28.099Z,2.50
2023-05-09T16:25:57.060Z,3.00
2023-05-09T16:28:27.063Z,2.50
2023-05-09T16:30:54.725Z,2.20
2023-05-09T16:33:22.262Z,2.40
2023-05-09T16:35:49.854Z,2.30
2023-05-09T16:38:17.221Z,2.40
2023-05-09T16:40:44.704Z,2.40
2023-05-09T16:43:13.379Z,2.47
2023-05-09T16:45:40.804Z,2.43
2023-05-09T16:48:08.256Z,2.50
2023-05-09T16:50:36.028Z,3.03
2023-05-09T16:53:04.661Z,2.67
2023-05-09T16:55:32.017Z,2.30
2023-05-09T16:57:59.382Z,3.00
2023-05-09T17:00:28.269Z,2.53
2023-05-09T17:02:55.927Z,2.60
2023-05-09T17:05:23.388Z,2.37
2023-05-09T17:07:50.817Z,2.50
2023-05-09T17:10:18.484Z,2.50
2023-05-09T17:12:45.999Z,2.70
2023-05-09T17:15:13.845Z,2.70
2023-05-09T17:17:43.196Z,2.37
2023-05-09T17:20:11.563Z,2.30
2023-05-09T17:22:39.045Z,2.47
2023-05-09T17:25:07.828Z,2.60
2023-05-09T17:27:35.304Z,2.73
2023-05-09T17:30:03.249Z,2.50
2023-05-09T17:32:30.682Z,2.20
2023-05-09T17:34:59.380Z,2.60
2023-05-09T17:37:26.837Z,2.40
2023-05-09T17:39:54.230Z,2.67
2023-05-09T17:42:21.568Z,2.33
2023-05-09T17:44:50.389Z,2.27
2023-05-09T17:47:17.733Z,2.40
2023-05-09T17:49:45.208Z,2.33
2023-05-09T17:52:13.930Z,2.23
2023-05-09T17:54:41.404Z,2.53
2023-05-09T17:57:09.027Z,3.20
2023-05-09T17:59:40.318Z,2.77
2023-05-09T18:02:07.795Z,2.50
2023-05-09T18:04:35.194Z,2.60
2023-05-09T18:07:02.622Z,2.20
2023-05-09T18:09:31.320Z,2.70
2023-05-09T18:11:59.028Z,2.40
2023-05-09T18:14:26.448Z,2.87
2023-05-09T18:16:53.815Z,2.47
2023-05-09T18:19:21.270Z,2.20
2023-05-09T18:21:48.637Z,1.90
2023-05-09T18:24:17.005Z,2.20
2023-05-09T18:26:45.864Z,2.30
2023-05-09T18:29:13.538Z,1.80
2023-05-09T18:31:43.859Z,2.03
2023-05-09T18:34:11.208Z,2.30
2023-05-09T18:36:38.598Z,2.03
2023-05-09T18:39:05.927Z,2.27
2023-05-09T18:41:34.164Z,2.10
2023-05-09T18:44:04.014Z,2.07
2023-05-09T18:46:33.619Z,2.00
2023-05-09T18:49:02.907Z,2.10
2023-05-09T18:51:31.123Z,2.20
2023-05-09T18:53:58.536Z,2.00
2023-05-09T18:56:25.928Z,2.70
2023-05-09T18:58:53.297Z,2.33
2023-05-09T19:01:24.255Z,2.10
2023-05-09T19:03:54.182Z,1.93
2023-05-09T19:06:23.969Z,2.30
2023-05-09T19:08:52.027Z,2.13
2023-05-09T19:11:19.349Z,2.30
2023-05-09T19:13:49.202Z,2.10
2023-05-09T19:16:18.711Z,1.80
2023-05-09T19:18:47.498Z,2.23
2023-05-09T19:21:15.641Z,1.87
2023-05-09T19:23:44.581Z,2.07
2023-05-09T19:26:11.949Z,2.30
2023-05-09T19:28:39.299Z,2.10
2023-05-09T19:31:06.689Z,2.40
2023-05-09T19:33:34.154Z,2.23
2023-05-09T19:36:02.850Z,2.10
2023-05-09T19:38:30.757Z,2.17
2023-05-09T19:40:59.157Z,2.40
2023-05-09T19:43:26.537Z,2.20
2023-05-09T19:45:53.946Z,2.37
2023-05-09T19:48:21.322Z,1.97
2023-05-09T19:50:48.748Z,2.30
2023-05-09T19:53:17.405Z,2.30
2023-05-09T19:55:46.843Z,2.30
2023-05-09T19:58:17.477Z,2.20
2023-05-09T20:00:45.219Z,2.10
2023-05-09T20:03:12.949Z,2.30
2023-05-09T20:05:40.432Z,2.20
2023-05-09T20:08:07.908Z,1.90
2023-05-09T20:10:36.803Z,2.20
2023-05-09T20:13:04.570Z,2.03
2023-05-09T20:15:32.182Z,2.20
2023-05-09T20:18:03.257Z,2.53
2023-05-09T20:20:32.099Z,2.37
2023-05-09T20:22:59.638Z,2.23
2023-05-09T20:25:27.112Z,1.97
2023-05-09T20:27:55.792Z,2.30
2023-05-09T20:30:23.144Z,1.97
2023-05-09T20:32:50.726Z,2.10
2023-05-09T20:35:18.100Z,2.20
2023-05-09T20:37:45.479Z,2.20
2023-05-09T20:40:13.821Z,2.60
2023-05-09T20:42:41.467Z,2.33
2023-05-09T20:45:10.952Z,2.10
2023-05-09T20:47:39.603Z,2.03
2023-05-09T20:50:07.712Z,2.30
2023-05-09T20:52:35.060Z,1.80
2023-05-09T20:55:02.427Z,2.13
2023-05-09T20:57:29.890Z,1.87
2023-05-09T20:59:57.267Z,2.40
2023-05-09T21:02:26.096Z,2.10
2023-05-09T21:04:53.496Z,2.07
2023-05-09T21:07:20.880Z,2.10
2023-05-09T21:09:48.262Z,2.30
2023-05-09T21:12:15.990Z,2.20
2023-05-09T21:14:44.535Z,2.17
2023-05-09T21:17:12.081Z,1.90
2023-05-09T21:19:40.812Z,2.13
2023-05-09T21:22:08.639Z,2.13
2023-05-09T21:24:36.015Z,2.30
2023-05-09T21:27:03.556Z,2.33
2023-05-09T21:29:30.921Z,2.30
2023-05-09T21:31:58.357Z,2.33
2023-05-09T21:34:25.753Z,2.50
2023-05-09T21:36:54.429Z,2.17
2023-05-09T21:39:21.779Z,2.13
2023-05-09T21:41:49.114Z,2.10
2023-05-09T21:44:16.450Z,2.00
2023-05-09T21:46:46.177Z,2.27
2023-05-09T21:49:16.530Z,2.40
2023-05-09T21:51:43.997Z,2.70
2023-05-09T21:54:12.688Z,2.27
2023-05-09T21:56:42.422Z,2.27
2023-05-09T21:59:09.765Z,2.00
2023-05-09T22:01:37.320Z,2.23
2023-05-09T22:04:04.862Z,2.20
2023-05-09T22:06:32.386Z,2.13
2023-05-09T22:08:59.718Z,2.10
2023-05-09T22:11:28.475Z,1.80
2023-05-09T22:13:56.365Z,2.20
2023-05-09T22:16:23.766Z,2.50
2023-05-09T22:18:51.216Z,2.10
2023-05-09T22:21:18.573Z,1.90
2023-05-09T22:23:45.912Z,1.97
2023-05-09T22:26:13.282Z,2.07
2023-05-09T22:28:41.965Z,2.20
2023-05-09T22:31:09.426Z,2.07
2023-05-09T22:33:36.864Z,2.00
2023-05-09T22:36:04.947Z,2.07
2023-05-09T22:38:32.488Z,2.00
2023-05-09T22:40:59.942Z,2.10
2023-05-09T22:43:31.183Z,2.07
2023-05-09T22:46:07.448Z,2.13
2023-05-09T22:48:34.946Z,1.93
2023-05-09T22:51:02.634Z,2.40
2023-05-09T22:53:30.077Z,2.33
2023-05-09T22:55:57.843Z,2.60
2023-05-09T22:58:27.959Z,2.20
2023-05-09T23:00:55.403Z,2.50
2023-05-09T23:03:24.225Z,2.33
2023-05-09T23:05:51.932Z,2.43
2023-05-09T23:08:19.278Z,2.07
2023-05-09T23:10:46.739Z,2.20
2023-05-09T23:13:14.142Z,2.30
2023-05-09T23:15:41.852Z,2.17
2023-05-09T23:18:09.457Z,2.40
2023-05-09T23:20:38.132Z,2.50
2023-05-09T23:23:05.937Z,2.00
2023-05-09T23:25:33.290Z,2.10
2023-05-09T23:28:00.636Z,2.30
2023-05-09T23:30:28.296Z,2.00
2023-05-09T23:32:56.119Z,2.40
2023-05-09T23:35:23.623Z,2.03
2023-05-09T23:37:52.300Z,2.37
2023-05-09T23:40:19.835Z,2.10
2023-05-09T23:42:47.199Z,2.30
2023-05-09T23:45:14.916Z,2.27
2023-05-09T23:47:42.421Z,1.90
2023-05-09T23:50:10.866Z,2.40
2023-05-09T23:52:38.195Z,2.17
2023-05-09T23:55:07.786Z,2.03
2023-05-09T23:57:35.157Z,2.23
